LEZLGCLA

Guest
Details From LEZL - Sevilla
To GCLA - La Palma
Flight Number -
Tags Generated
Created
Modified
Stats Distance 797 nm / 1,477 km
Max Altitude 0 ft / 0 m
Waypoints 3
Social Downloads 0
Likes 0
Share VATSIM

Download

Looking for another format? Having issues loading an existing format? Contact us
Advertisement - Login to hide

Notes

Generated

Route

LEZL BX GCLA

ID Type Via Altitude Latitude Longitude Leg Dist Tot Dist Heading (true) Name
O LEZL APT - 0 ft / 0 m 37.41788˚ -5.91208˚ - 0 nm - -
BX NDB - 0 ft / 0 m 28.60169˚ -17.75684˚ 796 nm 796 nm 232° / 225° LA PALMA NDB
O GCLA APT - 0 ft / 0 m 28.61659˚ -17.75542˚ 0 nm 797 nm 5° / 5° -

Altitude Profile

Advertisement - Login to hide

Weather


0- 5 10 15 20 25 30 35+ Temperature / ° C

Clouds and Precipitation
Forecast for 2018-05-27 12:00 UTC. Updated an hour ago

Ground ~20,000 ft ~40,000 ft Winds

LEZL

Details ICAO LEZL (SVQ)
Name Sevilla
Region Spain
Timezone Europe/Madrid (UTC+2.0)
Stats Elevation 111 ft / 34 m (AMSL)
Location 37.417939° -5.893093°
Runways 1
Magnetic Variation 1.244° W

METAR

LEZL 271000Z 24006KT 190V280 9999 SCT025 20/14 Q1016 NOSIG

Decode

TAF

TAF LEZL 270800Z 2709/2809 22009KT 9999 SCT030 TX25/2714Z TN16/2805Z

Decode

Departure Runways

ID Width Length Bearing (true) Bearing (mag) Surface Threshold Offset Overrun Length
09 148 ft / 45 m 11,008 ft / 3,355 m 89.75° 90.99° Asphalt 0 ft / 0 m 0 ft / 0 m
27 148 ft / 45 m 11,008 ft / 3,355 m 269.77° 271.01° Asphalt 0 ft / 0 m 0 ft / 0 m

GCLA

Details ICAO GCLA (SPC)
Name La Palma
Region Canary Islands
Timezone Atlantic/Canary (UTC+1.0)
Stats Elevation 107 ft / 33 m (AMSL)
Location 28.626480° -17.755613°
Runways 1
Magnetic Variation 5.469° W

METAR

GCLA 271000Z 04017KT 360V060 9999 SCT040 21/13 Q1022

Decode

TAF

TAF GCLA 270800Z 2709/2809 02011KT 9999 BKN040 TX22/2714Z TN17/2805Z

Decode

Destination Runways

ID Width Length Bearing (true) Bearing (mag) Surface Threshold Offset Overrun Length
01 148 ft / 45 m 7,240 ft / 2,207 m 359.02° 4.49° Asphalt 0 ft / 0 m 279 ft / 85 m
19 148 ft / 45 m 7,240 ft / 2,207 m 179.02° 184.49° Asphalt 0 ft / 0 m 236 ft / 72 m